sensor_id;sensor_type;location;lat;lon;timestamp;temperature;humidity
52107;DHT22;38105;52.968;5.974;2023-03-01T00:01:10;0.60;99.90
52107;DHT22;38105;52.968;5.974;2023-03-01T00:03:36;0.50;99.90
52107;DHT22;38105;52.968;5.974;2023-03-01T00:06:02;0.70;99.90
52107;DHT22;38105;52.968;5.974;2023-03-01T00:08:29;0.70;99.90
52107;DHT22;38105;52.968;5.974;2023-03-01T00:13:30;0.60;99.90
52107;DHT22;38105;52.968;5.974;2023-03-01T00:15:55;0.60;99.90
52107;DHT22;38105;52.968;5.974;2023-03-01T00:18:21;0.40;99.90
52107;DHT22;38105;52.968;5.974;2023-03-01T00:20:52;0.50;99.90
52107;DHT22;38105;52.968;5.974;2023-03-01T00:23:18;0.40;99.90
52107;DHT22;38105;52.968;5.974;2023-03-01T00:25:44;0.40;99.90
52107;DHT22;38105;52.968;5.974;2023-03-01T00:28:10;0.10;99.90
52107;DHT22;38105;52.968;5.974;2023-03-01T00:30:35;0.30;99.90
52107;DHT22;38105;52.968;5.974;2023-03-01T00:33:01;0.10;99.90
52107;DHT22;38105;52.968;5.974;2023-03-01T00:35:26;0.20;99.90
52107;DHT22;38105;52.968;5.974;2023-03-01T00:37:52;0.10;99.90
52107;DHT22;38105;52.968;5.974;2023-03-01T00:40:27;0.10;99.90
52107;DHT22;38105;52.968;5.974;2023-03-01T00:42:53;0.00;99.90
52107;DHT22;38105;52.968;5.974;2023-03-01T00:45:18;0.00;99.90
52107;DHT22;38105;52.968;5.974;2023-03-01T00:47:44;-0.10;99.90
52107;DHT22;38105;52.968;5.974;2023-03-01T00:50:11;-0.20;99.90
52107;DHT22;38105;52.968;5.974;2023-03-01T00:52:37;0.00;99.90
52107;DHT22;38105;52.968;5.974;2023-03-01T00:55:04;-0.20;99.90
52107;DHT22;38105;52.968;5.974;2023-03-01T00:57:30;-0.30;99.90
52107;DHT22;38105;52.968;5.974;2023-03-01T00:59:56;-0.10;99.90
52107;DHT22;38105;52.968;5.974;2023-03-01T01:02:22;-0.10;99.90
52107;DHT22;38105;52.968;5.974;2023-03-01T01:04:48;-0.10;99.90
52107;DHT22;38105;52.968;5.974;2023-03-01T01:07:14;-0.30;99.90
52107;DHT22;38105;52.968;5.974;2023-03-01T01:09:41;-0.50;99.90
52107;DHT22;38105;52.968;5.974;2023-03-01T01:12:07;-0.40;99.90
52107;DHT22;38105;52.968;5.974;2023-03-01T01:14:32;-0.60;99.90
52107;DHT22;38105;52.968;5.974;2023-03-01T01:16:58;-0.60;99.90
52107;DHT22;38105;52.968;5.974;2023-03-01T01:19:24;-0.60;99.90
52107;DHT22;38105;52.968;5.974;2023-03-01T01:21:50;-0.40;99.90
52107;DHT22;38105;52.968;5.974;2023-03-01T01:24:17;-0.60;99.90
52107;DHT22;38105;52.968;5.974;2023-03-01T01:26:43;-0.50;99.90
52107;DHT22;38105;52.968;5.974;2023-03-01T01:29:09;-0.50;99.90
52107;DHT22;38105;52.968;5.974;2023-03-01T01:31:37;-0.60;99.90
52107;DHT22;38105;52.968;5.974;2023-03-01T01:34:04;-0.50;99.90
52107;DHT22;38105;52.968;5.974;2023-03-01T01:36:31;-0.80;99.90
52107;DHT22;38105;52.968;5.974;2023-03-01T01:38:57;-0.70;99.90
52107;DHT22;38105;52.968;5.974;2023-03-01T01:41:25;-0.80;99.90
52107;DHT22;38105;52.968;5.974;2023-03-01T01:44:20;-0.80;99.90
52107;DHT22;38105;52.968;5.974;2023-03-01T01:46:57;-0.90;99.90
52107;DHT22;38105;52.968;5.974;2023-03-01T01:52:00;-1.00;99.90
52107;DHT22;38105;52.968;5.974;2023-03-01T01:54:39;-1.10;99.90
52107;DHT22;38105;52.968;5.974;2023-03-01T01:57:11;-1.10;99.90
52107;DHT22;38105;52.968;5.974;2023-03-01T01:59:39;-1.20;99.90
52107;DHT22;38105;52.968;5.974;2023-03-01T02:02:05;-1.00;99.90
52107;DHT22;38105;52.968;5.974;2023-03-01T02:04:32;-1.10;99.90
52107;DHT22;38105;52.968;5.974;2023-03-01T02:07:02;-1.10;99.90
52107;DHT22;38105;52.968;5.974;2023-03-01T02:09:30;-1.20;99.90
52107;DHT22;38105;52.968;5.974;2023-03-01T02:11:57;-1.00;99.90
52107;DHT22;38105;52.968;5.974;2023-03-01T02:14:23;-1.00;99.90
52107;DHT22;38105;52.968;5.974;2023-03-01T02:16:49;-1.10;99.90
52107;DHT22;38105;52.968;5.974;2023-03-01T02:19:40;-1.10;99.90
52107;DHT22;38105;52.968;5.974;2023-03-01T02:28:05;-1.00;99.90
52107;DHT22;38105;52.968;5.974;2023-03-01T02:30:33;-1.20;99.90
52107;DHT22;38105;52.968;5.974;2023-03-01T02:33:00;-1.10;99.90
52107;DHT22;38105;52.968;5.974;2023-03-01T02:35:35;-1.10;99.90
52107;DHT22;38105;52.968;5.974;2023-03-01T02:38:03;-1.30;99.90
52107;DHT22;38105;52.968;5.974;2023-03-01T02:40:33;-1.40;99.90
52107;DHT22;38105;52.968;5.974;2023-03-01T02:43:00;-1.40;99.90
52107;DHT22;38105;52.968;5.974;2023-03-01T02:45:27;-1.40;99.90
52107;DHT22;38105;52.968;5.974;2023-03-01T02:47:56;-1.40;99.90
52107;DHT22;38105;52.968;5.974;2023-03-01T02:51:05;-1.30;99.90
52107;DHT22;38105;52.968;5.974;2023-03-01T02:56:25;-1.30;99.90
52107;DHT22;38105;52.968;5.974;2023-03-01T02:58:51;-1.30;99.90
52107;DHT22;38105;52.968;5.974;2023-03-01T03:01:21;-1.50;99.90
52107;DHT22;38105;52.968;5.974;2023-03-01T03:03:46;-1.50;99.90
52107;DHT22;38105;52.968;5.974;2023-03-01T03:06:12;-1.40;99.90
52107;DHT22;38105;52.968;5.974;2023-03-01T03:08:38;-1.60;99.90
52107;DHT22;38105;52.968;5.974;2023-03-01T03:11:04;-1.30;99.90
52107;DHT22;38105;52.968;5.974;2023-03-01T03:13:30;-1.40;99.90
52107;DHT22;38105;52.968;5.974;2023-03-01T03:15:56;-1.30;99.90
52107;DHT22;38105;52.968;5.974;2023-03-01T03:18:22;-1.60;99.90
52107;DHT22;38105;52.968;5.974;2023-03-01T03:20:48;-1.40;99.90
52107;DHT22;38105;52.968;5.974;2023-03-01T03:23:18;-1.40;99.90
52107;DHT22;38105;52.968;5.974;2023-03-01T03:25:47;-1.60;99.90
52107;DHT22;38105;52.968;5.974;2023-03-01T03:28:13;-1.30;99.90
52107;DHT22;38105;52.968;5.974;2023-03-01T03:30:40;-1.30;99.90
52107;DHT22;38105;52.968;5.974;2023-03-01T03:33:06;-1.60;99.90
52107;DHT22;38105;52.968;5.974;2023-03-01T03:35:38;-1.70;99.90
52107;DHT22;38105;52.968;5.974;2023-03-01T03:38:07;-1.40;99.90
52107;DHT22;38105;52.968;5.974;2023-03-01T03:40:39;-1.60;99.90
52107;DHT22;38105;52.968;5.974;2023-03-01T03:43:07;-1.50;99.90
52107;DHT22;38105;52.968;5.974;2023-03-01T03:45:34;-1.50;99.90
52107;DHT22;38105;52.968;5.974;2023-03-01T03:48:02;-1.60;99.90
52107;DHT22;38105;52.968;5.974;2023-03-01T03:50:28;-1.90;99.90
52107;DHT22;38105;52.968;5.974;2023-03-01T03:52:54;-1.90;99.90
52107;DHT22;38105;52.968;5.974;2023-03-01T03:55:19;-2.00;99.90
52107;DHT22;38105;52.968;5.974;2023-03-01T03:57:47;-1.90;99.90
52107;DHT22;38105;52.968;5.974;2023-03-01T04:00:18;-2.00;99.90
52107;DHT22;38105;52.968;5.974;2023-03-01T04:02:46;-1.80;99.90
52107;DHT22;38105;52.968;5.974;2023-03-01T04:05:14;-2.00;99.90
52107;DHT22;38105;52.968;5.974;2023-03-01T04:07:40;-2.00;99.90
52107;DHT22;38105;52.968;5.974;2023-03-01T04:10:10;-2.30;99.90
52107;DHT22;38105;52.968;5.974;2023-03-01T04:12:36;-2.30;99.90
52107;DHT22;38105;52.968;5.974;2023-03-01T04:15:03;-2.10;99.90
52107;DHT22;38105;52.968;5.974;2023-03-01T04:17:39;-2.20;99.90
52107;DHT22;38105;52.968;5.974;2023-03-01T04:20:05;-2.20;99.90
52107;DHT22;38105;52.968;5.974;2023-03-01T04:22:32;-2.30;99.90
52107;DHT22;38105;52.968;5.974;2023-03-01T04:24:58;-2.50;99.90
52107;DHT22;38105;52.968;5.974;2023-03-01T04:27:27;-2.60;99.90
52107;DHT22;38105;52.968;5.974;2023-03-01T04:29:52;-2.40;99.90
52107;DHT22;38105;52.968;5.974;2023-03-01T04:32:18;-2.40;99.90
52107;DHT22;38105;52.968;5.974;2023-03-01T04:34:44;-2.70;99.90
52107;DHT22;38105;52.968;5.974;2023-03-01T04:37:09;-2.40;99.90
52107;DHT22;38105;52.968;5.974;2023-03-01T04:39:35;-2.50;99.90
52107;DHT22;38105;52.968;5.974;2023-03-01T04:42:13;-2.70;99.90
52107;DHT22;38105;52.968;5.974;2023-03-01T04:44:38;-2.70;99.90
52107;DHT22;38105;52.968;5.974;2023-03-01T04:47:04;-2.60;99.90
52107;DHT22;38105;52.968;5.974;2023-03-01T04:49:30;-2.70;99.90
52107;DHT22;38105;52.968;5.974;2023-03-01T04:51:56;-2.40;99.90
52107;DHT22;38105;52.968;5.974;2023-03-01T04:54:28;-2.70;99.90
52107;DHT22;38105;52.968;5.974;2023-03-01T04:56:54;-2.60;99.90
52107;DHT22;38105;52.968;5.974;2023-03-01T04:59:19;-2.80;99.90
52107;DHT22;38105;52.968;5.974;2023-03-01T05:01:51;-2.60;99.90
52107;DHT22;38105;52.968;5.974;2023-03-01T05:04:17;-2.90;99.90
52107;DHT22;38105;52.968;5.974;2023-03-01T05:06:43;-2.90;99.90
52107;DHT22;38105;52.968;5.974;2023-03-01T05:09:09;-2.90;99.90
52107;DHT22;38105;52.968;5.974;2023-03-01T05:11:37;-2.90;99.90
52107;DHT22;38105;52.968;5.974;2023-03-01T05:14:03;-3.00;99.90
52107;DHT22;38105;52.968;5.974;2023-03-01T05:16:29;-3.00;99.90
52107;DHT22;38105;52.968;5.974;2023-03-01T05:18:56;-3.30;99.90
52107;DHT22;38105;52.968;5.974;2023-03-01T05:21:23;-3.10;99.90
52107;DHT22;38105;52.968;5.974;2023-03-01T05:23:48;-3.10;99.90
52107;DHT22;38105;52.968;5.974;2023-03-01T05:26:16;-3.10;99.90
52107;DHT22;38105;52.968;5.974;2023-03-01T05:28:43;-3.00;99.90
52107;DHT22;38105;52.968;5.974;2023-03-01T05:31:09;-3.30;99.90
52107;DHT22;38105;52.968;5.974;2023-03-01T05:33:39;-3.20;99.90
52107;DHT22;38105;52.968;5.974;2023-03-01T05:36:06;-3.20;99.90
52107;DHT22;38105;52.968;5.974;2023-03-01T05:38:33;-3.20;99.90
52107;DHT22;38105;52.968;5.974;2023-03-01T05:40:59;-3.10;99.90
52107;DHT22;38105;52.968;5.974;2023-03-01T05:43:25;-3.10;99.90
52107;DHT22;38105;52.968;5.974;2023-03-01T05:45:51;-3.10;99.90
52107;DHT22;38105;52.968;5.974;2023-03-01T05:48:17;-3.20;99.90
52107;DHT22;38105;52.968;5.974;2023-03-01T05:50:45;-3.20;99.90
52107;DHT22;38105;52.968;5.974;2023-03-01T05:53:17;-3.30;99.90
52107;DHT22;38105;52.968;5.974;2023-03-01T05:55:45;-3.30;99.90
52107;DHT22;38105;52.968;5.974;2023-03-01T05:58:18;-3.40;99.90
52107;DHT22;38105;52.968;5.974;2023-03-01T06:00:46;-3.20;99.90
52107;DHT22;38105;52.968;5.974;2023-03-01T06:03:15;-3.10;99.90
52107;DHT22;38105;52.968;5.974;2023-03-01T06:05:41;-3.40;99.90
52107;DHT22;38105;52.968;5.974;2023-03-01T06:08:09;-3.40;99.90
52107;DHT22;38105;52.968;5.974;2023-03-01T06:10:35;-3.20;99.90
52107;DHT22;38105;52.968;5.974;2023-03-01T06:13:01;-3.20;99.90
52107;DHT22;38105;52.968;5.974;2023-03-01T06:15:26;-3.20;99.90
52107;DHT22;38105;52.968;5.974;2023-03-01T06:17:53;-3.40;99.90
52107;DHT22;38105;52.968;5.974;2023-03-01T06:20:23;-3.20;99.90
52107;DHT22;38105;52.968;5.974;2023-03-01T06:22:49;-3.30;99.90
52107;DHT22;38105;52.968;5.974;2023-03-01T06:25:18;-3.40;99.90
52107;DHT22;38105;52.968;5.974;2023-03-01T06:27:44;-3.30;99.90
52107;DHT22;38105;52.968;5.974;2023-03-01T06:30:12;-3.40;99.90
52107;DHT22;38105;52.968;5.974;2023-03-01T06:32:39;-3.30;99.90
52107;DHT22;38105;52.968;5.974;2023-03-01T06:35:10;-3.50;99.90
52107;DHT22;38105;52.968;5.974;2023-03-01T06:37:36;-3.30;99.90
52107;DHT22;38105;52.968;5.974;2023-03-01T06:40:04;-3.30;99.90
52107;DHT22;38105;52.968;5.974;2023-03-01T06:42:38;-3.30;99.90
52107;DHT22;38105;52.968;5.974;2023-03-01T06:45:05;-3.20;99.90
52107;DHT22;38105;52.968;5.974;2023-03-01T06:47:31;-3.20;99.90
52107;DHT22;38105;52.968;5.974;2023-03-01T06:49:58;-3.20;99.90
52107;DHT22;38105;52.968;5.974;2023-03-01T06:52:24;-3.10;99.90
52107;DHT22;38105;52.968;5.974;2023-03-01T06:54:50;-3.10;99.90
52107;DHT22;38105;52.968;5.974;2023-03-01T06:57:15;-2.90;99.90
52107;DHT22;38105;52.968;5.974;2023-03-01T06:59:41;-2.70;99.90
52107;DHT22;38105;52.968;5.974;2023-03-01T07:02:10;-2.20;99.90
52107;DHT22;38105;52.968;5.974;2023-03-01T07:04:36;-1.60;99.90
52107;DHT22;38105;52.968;5.974;2023-03-01T07:07:02;-0.80;99.90
52107;DHT22;38105;52.968;5.974;2023-03-01T07:09:27;-0.20;99.90
52107;DHT22;38105;52.968;5.974;2023-03-01T07:11:53;0.60;99.90
52107;DHT22;38105;52.968;5.974;2023-03-01T07:14:19;0.90;99.90
52107;DHT22;38105;52.968;5.974;2023-03-01T07:16:45;0.90;99.90
52107;DHT22;38105;52.968;5.974;2023-03-01T07:19:11;0.80;99.90
52107;DHT22;38105;52.968;5.974;2023-03-01T07:21:36;0.90;99.90
52107;DHT22;38105;52.968;5.974;2023-03-01T07:24:06;1.40;99.90
52107;DHT22;38105;52.968;5.974;2023-03-01T07:26:32;1.90;99.90
52107;DHT22;38105;52.968;5.974;2023-03-01T07:29:02;2.20;99.90
52107;DHT22;38105;52.968;5.974;2023-03-01T07:31:27;2.20;99.90
52107;DHT22;38105;52.968;5.974;2023-03-01T07:33:54;2.30;99.90
52107;DHT22;38105;52.968;5.974;2023-03-01T07:36:20;2.50;99.90
52107;DHT22;38105;52.968;5.974;2023-03-01T07:38:45;3.10;99.90
52107;DHT22;38105;52.968;5.974;2023-03-01T07:41:11;3.50;99.90
52107;DHT22;38105;52.968;5.974;2023-03-01T07:43:37;3.90;99.90
52107;DHT22;38105;52.968;5.974;2023-03-01T07:46:03;4.30;99.90
52107;DHT22;38105;52.968;5.974;2023-03-01T07:48:30;4.60;99.90
52107;DHT22;38105;52.968;5.974;2023-03-01T07:51:00;5.00;99.90
52107;DHT22;38105;52.968;5.974;2023-03-01T07:53:26;5.60;99.90
52107;DHT22;38105;52.968;5.974;2023-03-01T07:58:33;7.20;99.90
52107;DHT22;38105;52.968;5.974;2023-03-01T08:01:05;7.90;99.90
52107;DHT22;38105;52.968;5.974;2023-03-01T08:03:31;8.60;99.90
52107;DHT22;38105;52.968;5.974;2023-03-01T08:05:59;9.40;99.90
52107;DHT22;38105;52.968;5.974;2023-03-01T08:08:25;9.80;99.90
52107;DHT22;38105;52.968;5.974;2023-03-01T08:10:51;10.30;99.90
52107;DHT22;38105;52.968;5.974;2023-03-01T08:13:16;10.50;99.90
52107;DHT22;38105;52.968;5.974;2023-03-01T08:15:48;10.80;99.90
52107;DHT22;38105;52.968;5.974;2023-03-01T08:18:14;11.10;99.90
52107;DHT22;38105;52.968;5.974;2023-03-01T08:20:40;11.30;99.90
52107;DHT22;38105;52.968;5.974;2023-03-01T08:23:06;11.80;99.90
52107;DHT22;38105;52.968;5.974;2023-03-01T08:25:31;12.40;99.90
52107;DHT22;38105;52.968;5.974;2023-03-01T08:27:57;13.30;99.90
52107;DHT22;38105;52.968;5.974;2023-03-01T08:30:22;13.10;99.90
52107;DHT22;38105;52.968;5.974;2023-03-01T08:32:50;13.30;99.90
52107;DHT22;38105;52.968;5.974;2023-03-01T08:35:16;13.60;99.90
52107;DHT22;38105;52.968;5.974;2023-03-01T08:37:42;13.70;99.90
52107;DHT22;38105;52.968;5.974;2023-03-01T08:40:08;14.00;99.90
52107;DHT22;38105;52.968;5.974;2023-03-01T08:42:36;13.90;99.90
52107;DHT22;38105;52.968;5.974;2023-03-01T08:45:05;14.20;99.90
52107;DHT22;38105;52.968;5.974;2023-03-01T08:47:31;14.30;99.90
52107;DHT22;38105;52.968;5.974;2023-03-01T08:49:56;14.60;99.70
52107;DHT22;38105;52.968;5.974;2023-03-01T08:52:22;14.40;99.50
52107;DHT22;38105;52.968;5.974;2023-03-01T08:54:49;14.40;99.50
52107;DHT22;38105;52.968;5.974;2023-03-01T08:57:15;14.40;99.90
52107;DHT22;38105;52.968;5.974;2023-03-01T08:59:41;14.60;99.90
52107;DHT22;38105;52.968;5.974;2023-03-01T09:02:13;15.10;99.90
52107;DHT22;38105;52.968;5.974;2023-03-01T09:04:39;15.70;97.90
52107;DHT22;38105;52.968;5.974;2023-03-01T09:07:05;15.70;98.30
52107;DHT22;38105;52.968;5.974;2023-03-01T09:09:30;15.80;98.80
52107;DHT22;38105;52.968;5.974;2023-03-01T09:11:56;16.20;97.70
52107;DHT22;38105;52.968;5.974;2023-03-01T09:14:22;17.00;97.30
52107;DHT22;38105;52.968;5.974;2023-03-01T09:16:48;17.10;96.20
52107;DHT22;38105;52.968;5.974;2023-03-01T09:19:14;16.90;95.90
52107;DHT22;38105;52.968;5.974;2023-03-01T09:21:40;16.60;96.00
52107;DHT22;38105;52.968;5.974;2023-03-01T09:24:12;16.90;96.70
52107;DHT22;38105;52.968;5.974;2023-03-01T09:26:38;17.20;96.60
52107;DHT22;38105;52.968;5.974;2023-03-01T09:29:04;17.40;95.90
52107;DHT22;38105;52.968;5.974;2023-03-01T09:31:30;17.20;95.10
52107;DHT22;38105;52.968;5.974;2023-03-01T09:33:55;17.20;95.10
52107;DHT22;38105;52.968;5.974;2023-03-01T09:36:23;16.70;94.70
52107;DHT22;38105;52.968;5.974;2023-03-01T09:38:49;16.90;94.00
52107;DHT22;38105;52.968;5.974;2023-03-01T09:41:25;16.50;95.00
52107;DHT22;38105;52.968;5.974;2023-03-01T09:46:43;16.40;94.00
52107;DHT22;38105;52.968;5.974;2023-03-01T09:49:39;16.00;95.10
52107;DHT22;38105;52.968;5.974;2023-03-01T09:54:54;14.20;96.50
52107;DHT22;38105;52.968;5.974;2023-03-01T09:57:30;13.60;97.40
52107;DHT22;38105;52.968;5.974;2023-03-01T10:02:37;12.00;99.90
52107;DHT22;38105;52.968;5.974;2023-03-01T10:05:19;11.30;99.90
52107;DHT22;38105;52.968;5.974;2023-03-01T10:08:18;11.00;99.90
52107;DHT22;38105;52.968;5.974;2023-03-01T10:10:47;10.80;99.90
52107;DHT22;38105;52.968;5.974;2023-03-01T10:13:25;10.50;99.90
52107;DHT22;38105;52.968;5.974;2023-03-01T10:15:56;10.50;99.90
52107;DHT22;38105;52.968;5.974;2023-03-01T10:18:30;10.50;99.90
52107;DHT22;38105;52.968;5.974;2023-03-01T10:21:03;10.40;99.90
52107;DHT22;38105;52.968;5.974;2023-03-01T10:23:32;10.40;99.90
52107;DHT22;38105;52.968;5.974;2023-03-01T10:29:07;10.60;99.90
52107;DHT22;38105;52.968;5.974;2023-03-01T10:31:51;10.30;99.90
52107;DHT22;38105;52.968;5.974;2023-03-01T10:36:48;10.20;99.90
52107;DHT22;38105;52.968;5.974;2023-03-01T10:39:22;10.20;99.90
52107;DHT22;38105;52.968;5.974;2023-03-01T10:42:01;10.30;99.90
52107;DHT22;38105;52.968;5.974;2023-03-01T10:44:42;10.20;99.90
52107;DHT22;38105;52.968;5.974;2023-03-01T10:50:02;10.10;99.90
52107;DHT22;38105;52.968;5.974;2023-03-01T10:52:33;9.90;99.90
52107;DHT22;38105;52.968;5.974;2023-03-01T10:55:37;9.80;99.90
52107;DHT22;38105;52.968;5.974;2023-03-01T11:00:49;9.80;99.90
52107;DHT22;38105;52.968;5.974;2023-03-01T11:03:19;9.70;99.90
52107;DHT22;38105;52.968;5.974;2023-03-01T11:05:58;9.70;99.90
52107;DHT22;38105;52.968;5.974;2023-03-01T11:08:46;9.60;99.90
52107;DHT22;38105;52.968;5.974;2023-03-01T11:13:52;9.40;99.90
52107;DHT22;38105;52.968;5.974;2023-03-01T11:16:24;9.50;99.90
52107;DHT22;38105;52.968;5.974;2023-03-01T11:19:12;9.50;99.90
52107;DHT22;38105;52.968;5.974;2023-03-01T11:24:44;9.50;99.90
52107;DHT22;38105;52.968;5.974;2023-03-01T11:27:16;9.40;99.90
52107;DHT22;38105;52.968;5.974;2023-03-01T11:29:45;9.60;99.90
52107;DHT22;38105;52.968;5.974;2023-03-01T11:32:13;9.50;99.90
52107;DHT22;38105;52.968;5.974;2023-03-01T11:40:40;9.30;99.90
52107;DHT22;38105;52.968;5.974;2023-03-01T11:46:02;9.20;99.90
52107;DHT22;38105;52.968;5.974;2023-03-01T11:48:47;9.20;99.90
52107;DHT22;38105;52.968;5.974;2023-03-01T11:54:52;9.20;99.90
52107;DHT22;38105;52.968;5.974;2023-03-01T12:02:47;9.10;99.90
52107;DHT22;38105;52.968;5.974;2023-03-01T12:06:12;9.20;99.90
52107;DHT22;38105;52.968;5.974;2023-03-01T12:08:17;9.20;99.90
52107;DHT22;38105;52.968;5.974;2023-03-01T12:20:00;9.10;99.90
52107;DHT22;38105;52.968;5.974;2023-03-01T12:22:35;9.10;99.90
52107;DHT22;38105;52.968;5.974;2023-03-01T12:39:13;9.00;99.90
52107;DHT22;38105;52.968;5.974;2023-03-01T12:44:47;8.80;99.90
52107;DHT22;38105;52.968;5.974;2023-03-01T12:50:18;8.70;99.90
52107;DHT22;38105;52.968;5.974;2023-03-01T12:52:56;8.70;99.90
52107;DHT22;38105;52.968;5.974;2023-03-01T12:55:51;8.60;99.90
52107;DHT22;38105;52.968;5.974;2023-03-01T13:01:12;8.70;99.90
52107;DHT22;38105;52.968;5.974;2023-03-01T13:08:58;8.50;99.90
52107;DHT22;38105;52.968;5.974;2023-03-01T13:11:26;8.60;99.90
52107;DHT22;38105;52.968;5.974;2023-03-01T13:13:51;8.50;99.90
52107;DHT22;38105;52.968;5.974;2023-03-01T13:19:27;8.50;99.90
52107;DHT22;38105;52.968;5.974;2023-03-01T13:21:58;8.50;99.90
52107;DHT22;38105;52.968;5.974;2023-03-01T13:24:39;8.50;99.90
52107;DHT22;38105;52.968;5.974;2023-03-01T13:29:57;8.60;99.90
52107;DHT22;38105;52.968;5.974;2023-03-01T13:32:36;8.50;99.90
52107;DHT22;38105;52.968;5.974;2023-03-01T13:37:41;8.40;99.90
52107;DHT22;38105;52.968;5.974;2023-03-01T13:42:45;8.50;99.90
52107;DHT22;38105;52.968;5.974;2023-03-01T13:45:34;8.40;99.90
52107;DHT22;38105;52.968;5.974;2023-03-01T13:48:08;8.40;99.90
52107;DHT22;38105;52.968;5.974;2023-03-01T13:50:45;8.50;99.90
52107;DHT22;38105;52.968;5.974;2023-03-01T13:53:17;8.50;99.90
52107;DHT22;38105;52.968;5.974;2023-03-01T13:55:50;8.40;99.90
52107;DHT22;38105;52.968;5.974;2023-03-01T13:58:33;8.40;99.90
52107;DHT22;38105;52.968;5.974;2023-03-01T14:01:30;8.40;99.90
52107;DHT22;38105;52.968;5.974;2023-03-01T14:03:57;8.40;99.90
52107;DHT22;38105;52.968;5.974;2023-03-01T14:06:28;8.40;99.90
52107;DHT22;38105;52.968;5.974;2023-03-01T14:09:06;8.30;99.90
52107;DHT22;38105;52.968;5.974;2023-03-01T14:17:00;8.40;99.90
52107;DHT22;38105;52.968;5.974;2023-03-01T14:19:28;8.30;99.90
52107;DHT22;38105;52.968;5.974;2023-03-01T14:22:16;8.30;99.90
52107;DHT22;38105;52.968;5.974;2023-03-01T14:27:16;8.40;99.90
52107;DHT22;38105;52.968;5.974;2023-03-01T14:29:42;8.50;99.90
52107;DHT22;38105;52.968;5.974;2023-03-01T14:32:28;8.40;99.90
52107;DHT22;38105;52.968;5.974;2023-03-01T14:34:55;8.40;99.90
52107;DHT22;38105;52.968;5.974;2023-03-01T14:39:46;8.40;99.90
52107;DHT22;38105;52.968;5.974;2023-03-01T14:42:13;8.40;99.90
52107;DHT22;38105;52.968;5.974;2023-03-01T14:44:42;8.50;99.90
52107;DHT22;38105;52.968;5.974;2023-03-01T14:47:14;8.40;99.90
52107;DHT22;38105;52.968;5.974;2023-03-01T14:49:41;8.40;99.90
52107;DHT22;38105;52.968;5.974;2023-03-01T14:52:20;8.30;99.90
52107;DHT22;38105;52.968;5.974;2023-03-01T14:54:49;8.30;99.90
52107;DHT22;38105;52.968;5.974;2023-03-01T14:57:19;8.20;99.90
52107;DHT22;38105;52.968;5.974;2023-03-01T14:59:48;8.20;99.90
52107;DHT22;38105;52.968;5.974;2023-03-01T15:02:19;8.20;99.90
52107;DHT22;38105;52.968;5.974;2023-03-01T15:04:48;8.20;99.90
52107;DHT22;38105;52.968;5.974;2023-03-01T15:07:14;8.10;99.90
52107;DHT22;38105;52.968;5.974;2023-03-01T15:09:41;8.10;99.90
52107;DHT22;38105;52.968;5.974;2023-03-01T15:14:55;8.00;99.90
52107;DHT22;38105;52.968;5.974;2023-03-01T15:19:52;8.00;99.90
52107;DHT22;38105;52.968;5.974;2023-03-01T15:22:18;7.90;99.90
52107;DHT22;38105;52.968;5.974;2023-03-01T15:24:48;7.90;99.90
52107;DHT22;38105;52.968;5.974;2023-03-01T15:27:20;7.80;99.90
52107;DHT22;38105;52.968;5.974;2023-03-01T15:29:58;7.80;99.90
52107;DHT22;38105;52.968;5.974;2023-03-01T15:34:53;7.80;99.90
52107;DHT22;38105;52.968;5.974;2023-03-01T15:37:44;7.80;99.90
52107;DHT22;38105;52.968;5.974;2023-03-01T15:42:45;7.70;99.90
52107;DHT22;38105;52.968;5.974;2023-03-01T15:45:22;7.70;99.90
52107;DHT22;38105;52.968;5.974;2023-03-01T15:47:53;7.60;99.90
52107;DHT22;38105;52.968;5.974;2023-03-01T15:52:49;7.50;99.90
52107;DHT22;38105;52.968;5.974;2023-03-01T15:57:47;7.50;99.90
52107;DHT22;38105;52.968;5.974;2023-03-01T16:00:14;7.40;99.90
52107;DHT22;38105;52.968;5.974;2023-03-01T16:02:41;7.40;99.90
52107;DHT22;38105;52.968;5.974;2023-03-01T16:05:19;7.30;99.90
52107;DHT22;38105;52.968;5.974;2023-03-01T16:07:45;7.30;99.90
52107;DHT22;38105;52.968;5.974;2023-03-01T16:10:11;7.20;99.90
52107;DHT22;38105;52.968;5.974;2023-03-01T16:12:37;7.20;99.90
52107;DHT22;38105;52.968;5.974;2023-03-01T16:15:07;7.10;99.90
52107;DHT22;38105;52.968;5.974;2023-03-01T16:17:38;7.10;99.90
52107;DHT22;38105;52.968;5.974;2023-03-01T16:20:04;7.00;99.90
52107;DHT22;38105;52.968;5.974;2023-03-01T16:22:30;6.90;99.90
52107;DHT22;38105;52.968;5.974;2023-03-01T16:24:56;6.80;99.90
52107;DHT22;38105;52.968;5.974;2023-03-01T16:27:21;6.80;99.90
52107;DHT22;38105;52.968;5.974;2023-03-01T16:29:47;6.80;99.90
52107;DHT22;38105;52.968;5.974;2023-03-01T16:32:13;6.70;99.90
52107;DHT22;38105;52.968;5.974;2023-03-01T16:34:39;6.60;99.90
52107;DHT22;38105;52.968;5.974;2023-03-01T16:37:04;6.50;99.90
52107;DHT22;38105;52.968;5.974;2023-03-01T16:39:30;6.50;99.90
52107;DHT22;38105;52.968;5.974;2023-03-01T16:41:55;6.40;99.90
52107;DHT22;38105;52.968;5.974;2023-03-01T16:44:21;6.30;99.90
52107;DHT22;38105;52.968;5.974;2023-03-01T16:46:47;6.20;99.90
52107;DHT22;38105;52.968;5.974;2023-03-01T16:49:13;6.20;99.90
52107;DHT22;38105;52.968;5.974;2023-03-01T16:51:38;6.10;99.90
52107;DHT22;38105;52.968;5.974;2023-03-01T16:54:04;6.00;99.90
52107;DHT22;38105;52.968;5.974;2023-03-01T16:56:30;6.00;99.90
52107;DHT22;38105;52.968;5.974;2023-03-01T16:58:57;5.90;99.90
52107;DHT22;38105;52.968;5.974;2023-03-01T17:01:23;5.80;99.90
52107;DHT22;38105;52.968;5.974;2023-03-01T17:03:51;5.70;99.90
52107;DHT22;38105;52.968;5.974;2023-03-01T17:06:19;5.70;99.90
52107;DHT22;38105;52.968;5.974;2023-03-01T17:08:45;5.60;99.90
52107;DHT22;38105;52.968;5.974;2023-03-01T17:11:14;5.50;99.90
52107;DHT22;38105;52.968;5.974;2023-03-01T17:13:41;5.50;99.90
52107;DHT22;38105;52.968;5.974;2023-03-01T17:16:09;5.30;99.90
52107;DHT22;38105;52.968;5.974;2023-03-01T17:18:35;5.20;99.90
52107;DHT22;38105;52.968;5.974;2023-03-01T17:21:01;5.20;99.90
52107;DHT22;38105;52.968;5.974;2023-03-01T17:23:28;5.10;99.90
52107;DHT22;38105;52.968;5.974;2023-03-01T17:25:55;5.10;99.90
52107;DHT22;38105;52.968;5.974;2023-03-01T17:28:22;5.00;99.90
52107;DHT22;38105;52.968;5.974;2023-03-01T17:30:48;4.90;99.90
52107;DHT22;38105;52.968;5.974;2023-03-01T17:33:15;4.90;99.90
52107;DHT22;38105;52.968;5.974;2023-03-01T17:35:41;4.80;99.90
52107;DHT22;38105;52.968;5.974;2023-03-01T17:38:07;4.70;99.90
52107;DHT22;38105;52.968;5.974;2023-03-01T17:40:33;4.70;99.90
52107;DHT22;38105;52.968;5.974;2023-03-01T17:43:00;4.70;99.90
52107;DHT22;38105;52.968;5.974;2023-03-01T17:45:26;4.60;99.90
52107;DHT22;38105;52.968;5.974;2023-03-01T17:47:52;4.60;99.90
52107;DHT22;38105;52.968;5.974;2023-03-01T17:50:18;4.50;99.90
52107;DHT22;38105;52.968;5.974;2023-03-01T17:52:43;4.50;99.90
52107;DHT22;38105;52.968;5.974;2023-03-01T17:55:10;4.40;99.90
52107;DHT22;38105;52.968;5.974;2023-03-01T17:57:39;4.40;99.90
52107;DHT22;38105;52.968;5.974;2023-03-01T18:00:09;4.40;99.90
52107;DHT22;38105;52.968;5.974;2023-03-01T18:02:35;4.40;99.90